sensor_id;sensor_type;location;lat;lon;timestamp;pressure;altitude;pressure_sealevel;temperature;humidity
34197;BME280;36594;45.192;5.722;2023-03-26T00:00:00;99055.16;;;25.87;35.58
34197;BME280;36594;45.192;5.722;2023-03-26T00:02:52;99050.20;;;25.89;35.54
34197;BME280;36594;45.192;5.722;2023-03-26T00:05:40;99045.80;;;25.91;35.55
34197;BME280;36594;45.192;5.722;2023-03-26T00:08:29;99052.42;;;25.90;35.48
34197;BME280;36594;45.192;5.722;2023-03-26T00:11:20;99059.00;;;25.89;35.53
34197;BME280;36594;45.192;5.722;2023-03-26T00:14:09;99051.88;;;25.90;35.54
34197;BME280;36594;45.192;5.722;2023-03-26T00:16:59;99043.88;;;25.91;35.47
34197;BME280;36594;45.192;5.722;2023-03-26T00:19:48;99046.38;;;25.90;35.52
34197;BME280;36594;45.192;5.722;2023-03-26T00:22:36;99021.61;;;25.90;35.51
34197;BME280;36594;45.192;5.722;2023-03-26T00:25:25;99018.86;;;25.90;35.55
34197;BME280;36594;45.192;5.722;2023-03-26T00:28:13;99022.42;;;25.93;35.46
34197;BME280;36594;45.192;5.722;2023-03-26T00:31:05;99033.71;;;25.92;35.48
34197;BME280;36594;45.192;5.722;2023-03-26T00:33:54;99026.29;;;25.92;35.50
34197;BME280;36594;45.192;5.722;2023-03-26T00:36:43;99010.04;;;25.93;35.50
34197;BME280;36594;45.192;5.722;2023-03-26T00:39:32;99009.78;;;25.92;35.47
34197;BME280;36594;45.192;5.722;2023-03-26T00:42:22;99015.53;;;25.91;35.56
34197;BME280;36594;45.192;5.722;2023-03-26T00:45:11;99022.39;;;25.88;35.57
34197;BME280;36594;45.192;5.722;2023-03-26T00:47:59;99024.36;;;25.90;35.57
34197;BME280;36594;45.192;5.722;2023-03-26T00:50:49;99009.47;;;25.89;35.58
34197;BME280;36594;45.192;5.722;2023-03-26T00:53:37;98996.84;;;25.90;35.57
34197;BME280;36594;45.192;5.722;2023-03-26T00:56:27;99005.90;;;25.91;35.59
34197;BME280;36594;45.192;5.722;2023-03-26T00:59:16;98997.94;;;25.92;35.57
34197;BME280;36594;45.192;5.722;2023-03-26T01:02:05;98990.20;;;25.89;35.58
34197;BME280;36594;45.192;5.722;2023-03-26T01:04:56;98990.75;;;25.88;35.57
34197;BME280;36594;45.192;5.722;2023-03-26T01:07:47;98993.80;;;25.89;35.59
34197;BME280;36594;45.192;5.722;2023-03-26T01:10:36;98981.12;;;25.88;35.60
34197;BME280;36594;45.192;5.722;2023-03-26T01:13:25;98980.33;;;25.90;35.59
34197;BME280;36594;45.192;5.722;2023-03-26T01:16:35;98986.09;;;25.91;35.56
34197;BME280;36594;45.192;5.722;2023-03-26T01:19:21;98997.92;;;25.89;35.60
34197;BME280;36594;45.192;5.722;2023-03-26T01:22:12;99010.86;;;25.91;35.57
34197;BME280;36594;45.192;5.722;2023-03-26T01:25:00;99023.23;;;25.89;35.62
34197;BME280;36594;45.192;5.722;2023-03-26T01:27:52;99010.60;;;25.90;35.55
34197;BME280;36594;45.192;5.722;2023-03-26T01:30:57;99002.61;;;25.91;35.55
34197;BME280;36594;45.192;5.722;2023-03-26T01:33:48;98991.34;;;25.90;35.55
34197;BME280;36594;45.192;5.722;2023-03-26T01:37:03;99001.22;;;25.89;35.56
34197;BME280;36594;45.192;5.722;2023-03-26T01:39:54;99006.16;;;25.87;35.61
34197;BME280;36594;45.192;5.722;2023-03-26T01:42:51;98990.19;;;25.86;35.62
34197;BME280;36594;45.192;5.722;2023-03-26T01:45:39;98984.98;;;25.87;35.60
34197;BME280;36594;45.192;5.722;2023-03-26T01:48:30;99002.61;;;25.91;35.58
34197;BME280;36594;45.192;5.722;2023-03-26T01:51:28;98998.20;;;25.88;35.58
34197;BME280;36594;45.192;5.722;2023-03-26T01:54:19;99002.03;;;25.87;35.58
34197;BME280;36594;45.192;5.722;2023-03-26T02:00:09;98983.61;;;25.87;35.61
34197;BME280;36594;45.192;5.722;2023-03-26T02:03:12;98974.23;;;25.88;35.55
34197;BME280;36594;45.192;5.722;2023-03-26T02:06:05;98973.69;;;25.86;35.60
34197;BME280;36594;45.192;5.722;2023-03-26T02:09:04;98963.79;;;25.85;35.63
34197;BME280;36594;45.192;5.722;2023-03-26T02:11:53;98966.27;;;25.87;35.64
34197;BME280;36594;45.192;5.722;2023-03-26T02:14:44;98961.58;;;25.85;35.62
34197;BME280;36594;45.192;5.722;2023-03-26T02:17:33;98961.05;;;25.88;35.58
34197;BME280;36594;45.192;5.722;2023-03-26T02:20:22;98965.72;;;25.87;35.58
34197;BME280;36594;45.192;5.722;2023-03-26T02:23:12;98958.55;;;25.86;35.58
34197;BME280;36594;45.192;5.722;2023-03-26T02:26:13;98962.14;;;25.87;35.58
34197;BME280;36594;45.192;5.722;2023-03-26T02:28:58;98956.63;;;25.87;35.54
34197;BME280;36594;45.192;5.722;2023-03-26T02:31:48;98954.73;;;25.90;35.50
34197;BME280;36594;45.192;5.722;2023-03-26T02:34:38;98956.94;;;25.90;35.51
34197;BME280;36594;45.192;5.722;2023-03-26T02:37:27;98963.81;;;25.90;35.50
34197;BME280;36594;45.192;5.722;2023-03-26T02:40:18;98967.36;;;25.88;35.47
34197;BME280;36594;45.192;5.722;2023-03-26T02:43:08;98973.44;;;25.88;35.53
34197;BME280;36594;45.192;5.722;2023-03-26T02:45:58;98963.52;;;25.89;35.49
34197;BME280;36594;45.192;5.722;2023-03-26T02:48:51;98955.56;;;25.90;35.45
34197;BME280;36594;45.192;5.722;2023-03-26T02:51:40;98934.91;;;25.88;35.49
34197;BME280;36594;45.192;5.722;2023-03-26T02:54:31;98945.93;;;25.90;35.53
34197;BME280;36594;45.192;5.722;2023-03-26T02:57:40;98949.22;;;25.90;35.49
34197;BME280;36594;45.192;5.722;2023-03-26T03:00:33;98944.80;;;25.89;35.50
34197;BME280;36594;45.192;5.722;2023-03-26T03:03:26;98939.05;;;25.90;35.55
34197;BME280;36594;45.192;5.722;2023-03-26T03:06:21;98931.58;;;25.86;35.57
34197;BME280;36594;45.192;5.722;2023-03-26T03:09:13;98920.31;;;25.87;35.60
34197;BME280;36594;45.192;5.722;2023-03-26T03:12:05;98917.27;;;25.84;35.60
34197;BME280;36594;45.192;5.722;2023-03-26T03:14:54;98901.30;;;25.86;35.60
34197;BME280;36594;45.192;5.722;2023-03-26T03:17:42;98882.62;;;25.85;35.55
34197;BME280;36594;45.192;5.722;2023-03-26T03:20:30;98883.72;;;25.89;35.54
34197;BME280;36594;45.192;5.722;2023-03-26T03:23:20;98878.20;;;25.84;35.52
34197;BME280;36594;45.192;5.722;2023-03-26T03:26:12;98883.42;;;25.86;35.56
34197;BME280;36594;45.192;5.722;2023-03-26T03:29:03;98872.69;;;25.82;35.54
34197;BME280;36594;45.192;5.722;2023-03-26T03:31:52;98865.55;;;25.81;35.64
34197;BME280;36594;45.192;5.722;2023-03-26T03:34:49;98866.34;;;25.81;35.62
34197;BME280;36594;45.192;5.722;2023-03-26T03:37:38;98859.77;;;25.82;35.58
34197;BME280;36594;45.192;5.722;2023-03-26T03:40:27;98858.92;;;25.82;35.61
34197;BME280;36594;45.192;5.722;2023-03-26T03:43:15;98847.09;;;25.81;35.55
34197;BME280;36594;45.192;5.722;2023-03-26T03:46:11;98846.00;;;25.82;35.60
34197;BME280;36594;45.192;5.722;2023-03-26T03:49:02;98833.91;;;25.83;35.52
34197;BME280;36594;45.192;5.722;2023-03-26T03:51:52;98834.45;;;25.83;35.61
34197;BME280;36594;45.192;5.722;2023-03-26T03:54:42;98817.12;;;25.82;35.61
34197;BME280;36594;45.192;5.722;2023-03-26T03:57:44;98812.70;;;25.81;35.58
34197;BME280;36594;45.192;5.722;2023-03-26T04:00:37;98807.76;;;25.78;35.61
34197;BME280;36594;45.192;5.722;2023-03-26T04:03:44;98809.39;;;25.79;35.58
34197;BME280;36594;45.192;5.722;2023-03-26T04:06:33;98818.47;;;25.77;35.58
34197;BME280;36594;45.192;5.722;2023-03-26T04:09:21;98818.77;;;25.78;35.64
34197;BME280;36594;45.192;5.722;2023-03-26T04:12:12;98809.14;;;25.81;35.55
34197;BME280;36594;45.192;5.722;2023-03-26T04:15:03;98796.47;;;25.80;35.53
34197;BME280;36594;45.192;5.722;2023-03-26T04:17:53;98795.92;;;25.78;35.60
34197;BME280;36594;45.192;5.722;2023-03-26T04:20:43;98779.70;;;25.79;35.66
34197;BME280;36594;45.192;5.722;2023-03-26T04:23:35;98784.38;;;25.81;35.61
34197;BME280;36594;45.192;5.722;2023-03-26T04:26:25;98784.63;;;25.79;35.62
34197;BME280;36594;45.192;5.722;2023-03-26T04:29:20;98776.38;;;25.82;35.64
34197;BME280;36594;45.192;5.722;2023-03-26T04:32:20;98768.14;;;25.84;35.57
34197;BME280;36594;45.192;5.722;2023-03-26T04:35:11;98768.67;;;25.81;35.56
34197;BME280;36594;45.192;5.722;2023-03-26T04:38:02;98763.45;;;25.77;35.56
34197;BME280;36594;45.192;5.722;2023-03-26T04:40:54;98760.45;;;25.79;35.68
34197;BME280;36594;45.192;5.722;2023-03-26T04:43:48;98762.36;;;25.78;35.68
34197;BME280;36594;45.192;5.722;2023-03-26T04:46:38;98750.23;;;25.77;35.66
34197;BME280;36594;45.192;5.722;2023-03-26T04:49:30;98747.48;;;25.74;35.71
34197;BME280;36594;45.192;5.722;2023-03-26T04:52:19;98738.69;;;25.77;35.71
34197;BME280;36594;45.192;5.722;2023-03-26T04:55:35;98743.36;;;25.77;35.64
34197;BME280;36594;45.192;5.722;2023-03-26T04:58:22;98743.64;;;25.75;35.63
34197;BME280;36594;45.192;5.722;2023-03-26T05:01:17;98719.72;;;25.76;35.64
34197;BME280;36594;45.192;5.722;2023-03-26T05:04:06;98721.92;;;25.76;35.68
34197;BME280;36594;45.192;5.722;2023-03-26T05:06:56;98717.79;;;25.71;35.67
34197;BME280;36594;45.192;5.722;2023-03-26T05:09:47;98722.19;;;25.77;35.69
34197;BME280;36594;45.192;5.722;2023-03-26T05:12:37;98715.05;;;25.76;35.70
34197;BME280;36594;45.192;5.722;2023-03-26T05:15:27;98713.67;;;25.76;35.63
34197;BME280;36594;45.192;5.722;2023-03-26T05:18:26;98705.96;;;25.76;35.69
34197;BME280;36594;45.192;5.722;2023-03-26T05:21:14;98709.25;;;25.75;35.71
34197;BME280;36594;45.192;5.722;2023-03-26T05:24:03;98704.05;;;25.79;35.65
34197;BME280;36594;45.192;5.722;2023-03-26T05:26:52;98708.43;;;25.77;35.69
34197;BME280;36594;45.192;5.722;2023-03-26T05:29:43;98719.17;;;25.74;35.69
34197;BME280;36594;45.192;5.722;2023-03-26T05:32:32;98739.52;;;25.75;35.68
34197;BME280;36594;45.192;5.722;2023-03-26T05:35:21;98741.44;;;25.75;35.77
34197;BME280;36594;45.192;5.722;2023-03-26T05:38:10;98715.84;;;25.74;35.71
34197;BME280;36594;45.192;5.722;2023-03-26T05:41:04;98716.97;;;25.76;35.67
34197;BME280;36594;45.192;5.722;2023-03-26T05:43:54;98712.84;;;25.78;35.67
34197;BME280;36594;45.192;5.722;2023-03-26T05:46:44;98719.72;;;25.76;35.74
34197;BME280;36594;45.192;5.722;2023-03-26T05:49:34;98715.05;;;25.74;35.74
34197;BME280;36594;45.192;5.722;2023-03-26T05:52:23;98695.23;;;25.72;35.72
34197;BME280;36594;45.192;5.722;2023-03-26T05:55:28;98692.75;;;25.75;35.70
34197;BME280;36594;45.192;5.722;2023-03-26T05:58:27;98693.03;;;25.74;35.65
34197;BME280;36594;45.192;5.722;2023-03-26T06:01:34;98685.58;;;25.74;35.70
34197;BME280;36594;45.192;5.722;2023-03-26T06:04:27;98676.78;;;25.70;35.75
34197;BME280;36594;45.192;5.722;2023-03-26T06:07:35;98683.40;;;25.69;35.74
34197;BME280;36594;45.192;5.722;2023-03-26T06:10:31;98673.77;;;25.71;35.73
34197;BME280;36594;45.192;5.722;2023-03-26T06:13:19;98671.86;;;25.72;35.69
34197;BME280;36594;45.192;5.722;2023-03-26T06:16:10;98679.82;;;25.71;35.70
34197;BME280;36594;45.192;5.722;2023-03-26T06:19:01;98707.62;;;25.72;35.62
34197;BME280;36594;45.192;5.722;2023-03-26T06:21:51;98716.12;;;25.70;35.70
34197;BME280;36594;45.192;5.722;2023-03-26T06:24:41;98718.33;;;25.71;35.67
34197;BME280;36594;45.192;5.722;2023-03-26T06:27:43;98716.41;;;25.71;35.67
34197;BME280;36594;45.192;5.722;2023-03-26T06:30:49;98716.12;;;25.70;35.70
34197;BME280;36594;45.192;5.722;2023-03-26T06:33:57;98721.91;;;25.71;35.67
34197;BME280;36594;45.192;5.722;2023-03-26T06:36:46;98711.72;;;25.62;35.68
34197;BME280;36594;45.192;5.722;2023-03-26T06:39:35;98726.30;;;25.72;35.63
34197;BME280;36594;45.192;5.722;2023-03-26T06:42:34;98707.05;;;25.72;35.67
34197;BME280;36594;45.192;5.722;2023-03-26T06:45:24;98696.62;;;25.72;35.65
34197;BME280;36594;45.192;5.722;2023-03-26T06:48:17;98706.50;;;25.73;35.61
34197;BME280;36594;45.192;5.722;2023-03-26T06:51:08;98728.25;;;25.72;35.65
34197;BME280;36594;45.192;5.722;2023-03-26T06:54:16;98715.58;;;25.68;35.68
34197;BME280;36594;45.192;5.722;2023-03-26T06:57:11;98700.16;;;25.67;35.71
34197;BME280;36594;45.192;5.722;2023-03-26T07:00:12;98686.41;;;25.67;35.71
34197;BME280;36594;45.192;5.722;2023-03-26T07:03:18;98704.28;;;25.67;35.72
34197;BME280;36594;45.192;5.722;2023-03-26T07:06:25;98706.23;;;25.67;35.69
34197;BME280;36594;45.192;5.722;2023-03-26T07:09:32;98695.22;;;25.64;35.75
34197;BME280;36594;45.192;5.722;2023-03-26T07:12:39;98675.42;;;25.60;35.72
34197;BME280;36594;45.192;5.722;2023-03-26T07:15:47;98675.14;;;25.64;35.74
34197;BME280;36594;45.192;5.722;2023-03-26T07:18:54;98675.69;;;25.63;35.78
34197;BME280;36594;45.192;5.722;2023-03-26T07:21:44;98690.27;;;25.61;35.81
34197;BME280;36594;45.192;5.722;2023-03-26T07:24:51;98716.40;;;25.64;35.80
34197;BME280;36594;45.192;5.722;2023-03-26T07:34:54;98724.09;;;25.62;35.87
34197;BME280;36594;45.192;5.722;2023-03-26T07:47:40;98724.92;;;25.60;35.99
34197;BME280;36594;45.192;5.722;2023-03-26T07:50:38;98712.00;;;25.58;35.90
34197;BME280;36594;45.192;5.722;2023-03-26T07:53:29;98703.19;;;25.61;35.92
34197;BME280;36594;45.192;5.722;2023-03-26T07:59:56;98716.66;;;25.67;35.83
34197;BME280;36594;45.192;5.722;2023-03-26T08:09:32;98729.85;;;25.60;35.86
34197;BME280;36594;45.192;5.722;2023-03-26T08:13:03;98730.97;;;25.59;35.88
34197;BME280;36594;45.192;5.722;2023-03-26T08:16:02;98739.77;;;25.59;35.91
34197;BME280;36594;45.192;5.722;2023-03-26T08:21:58;98750.22;;;25.59;35.92
34197;BME280;36594;45.192;5.722;2023-03-26T08:27:46;98736.19;;;25.61;35.76
34197;BME280;36594;45.192;5.722;2023-03-26T08:30:34;98740.06;;;25.62;35.38
34197;BME280;36594;45.192;5.722;2023-03-26T08:33:25;98746.09;;;25.59;35.10
34197;BME280;36594;45.192;5.722;2023-03-26T08:36:14;98745.26;;;25.56;34.90
34197;BME280;36594;45.192;5.722;2023-03-26T08:39:02;98751.87;;;25.58;34.49
34197;BME280;36594;45.192;5.722;2023-03-26T08:45:45;98734.27;;;25.59;33.68
34197;BME280;36594;45.192;5.722;2023-03-26T08:51:58;98736.99;;;25.51;34.20
34197;BME280;36594;45.192;5.722;2023-03-26T09:04:51;98740.02;;;25.47;34.60
34197;BME280;36594;45.192;5.722;2023-03-26T09:26:58;98792.28;;;25.52;34.57
34197;BME280;36594;45.192;5.722;2023-03-26T09:30:09;98791.45;;;25.52;34.68
34197;BME280;36594;45.192;5.722;2023-03-26T09:33:15;98785.92;;;25.47;35.12
34197;BME280;36594;45.192;5.722;2023-03-26T09:36:24;98762.25;;;25.43;35.27
34197;BME280;36594;45.192;5.722;2023-03-26T09:51:36;98777.43;;;25.48;35.85
34197;BME280;36594;45.192;5.722;2023-03-26T09:54:54;98770.27;;;25.50;35.92
34197;BME280;36594;45.192;5.722;2023-03-26T10:04:20;98776.59;;;25.48;36.07
34197;BME280;36594;45.192;5.722;2023-03-26T10:07:02;98742.51;;;25.46;36.05
34197;BME280;36594;45.192;5.722;2023-03-26T10:10:13;98733.97;;;25.45;36.10
34197;BME280;36594;45.192;5.722;2023-03-26T10:16:19;98749.38;;;25.46;36.11
34197;BME280;36594;45.192;5.722;2023-03-26T10:22:37;98751.02;;;25.47;36.12
34197;BME280;36594;45.192;5.722;2023-03-26T10:28:39;98721.30;;;25.44;36.14
34197;BME280;36594;45.192;5.722;2023-03-26T10:31:45;98716.92;;;25.46;36.15
34197;BME280;36594;45.192;5.722;2023-03-26T10:47:13;98683.37;;;25.44;36.14
34197;BME280;36594;45.192;5.722;2023-03-26T10:50:25;98690.77;;;25.43;36.12
34197;BME280;36594;45.192;5.722;2023-03-26T10:56:25;98660.02;;;25.46;36.10
34197;BME280;36594;45.192;5.722;2023-03-26T10:59:15;98664.64;;;25.43;36.08
34197;BME280;36594;45.192;5.722;2023-03-26T11:05:26;98668.25;;;25.56;36.06
34197;BME280;36594;45.192;5.722;2023-03-26T11:08:21;98653.69;;;25.68;35.91
34197;BME280;36594;45.192;5.722;2023-03-26T11:11:19;98652.31;;;25.78;35.77
34197;BME280;36594;45.192;5.722;2023-03-26T11:14:25;98659.45;;;25.92;35.61
34197;BME280;36594;45.192;5.722;2023-03-26T11:23:36;98653.95;;;25.79;35.43
34197;BME280;36594;45.192;5.722;2023-03-26T11:32:51;98676.48;;;25.49;35.80
34197;BME280;36594;45.192;5.722;2023-03-26T11:35:39;98651.19;;;25.49;35.86
34197;BME280;36594;45.192;5.722;2023-03-26T11:38:40;98653.11;;;25.51;35.82
34197;BME280;36594;45.192;5.722;2023-03-26T11:41:31;98662.20;;;25.54;35.87
34197;BME280;36594;45.192;5.722;2023-03-26T11:44:26;98658.08;;;25.52;35.96
34197;BME280;36594;45.192;5.722;2023-03-26T11:47:20;98650.36;;;25.51;36.09
34197;BME280;36594;45.192;5.722;2023-03-26T11:50:09;98645.98;;;25.50;36.19
34197;BME280;36594;45.192;5.722;2023-03-26T11:53:01;98631.69;;;25.48;36.22
34197;BME280;36594;45.192;5.722;2023-03-26T11:56:12;98630.31;;;25.48;36.24
34197;BME280;36594;45.192;5.722;2023-03-26T11:59:03;98632.49;;;25.51;36.16
34197;BME280;36594;45.192;5.722;2023-03-26T12:05:20;98636.06;;;25.44;36.31
34197;BME280;36594;45.192;5.722;2023-03-26T12:07:54;98640.98;;;25.42;36.36
34197;BME280;36594;45.192;5.722;2023-03-26T12:10:57;98635.48;;;25.42;36.42
34197;BME280;36594;45.192;5.722;2023-03-26T12:13:56;98631.35;;;25.39;36.45
34197;BME280;36594;45.192;5.722;2023-03-26T12:17:04;98637.67;;;25.37;36.50
34197;BME280;36594;45.192;5.722;2023-03-26T12:19:53;98626.14;;;25.35;36.54
34197;BME280;36594;45.192;5.722;2023-03-26T12:22:44;98607.43;;;25.32;36.58
34197;BME280;36594;45.192;5.722;2023-03-26T12:25:35;98585.44;;;25.30;36.58
34197;BME280;36594;45.192;5.722;2023-03-26T12:28:29;98557.94;;;25.30;36.63
34197;BME280;36594;45.192;5.722;2023-03-26T12:31:17;98555.48;;;25.31;36.65
34197;BME280;36594;45.192;5.722;2023-03-26T12:34:17;98556.86;;;25.31;36.63
34197;BME280;36594;45.192;5.722;2023-03-26T12:37:02;98555.19;;;25.30;36.63
34197;BME280;36594;45.192;5.722;2023-03-26T12:40:03;98568.67;;;25.26;36.69
34197;BME280;36594;45.192;5.722;2023-03-26T12:42:50;98565.92;;;25.26;36.63
34197;BME280;36594;45.192;5.722;2023-03-26T12:45:40;98568.67;;;25.24;36.70
34197;BME280;36594;45.192;5.722;2023-03-26T12:48:28;98550.81;;;25.29;36.73
34197;BME280;36594;45.192;5.722;2023-03-26T12:57:26;98564.03;;;25.55;36.20
34197;BME280;36594;45.192;5.722;2023-03-26T13:00:28;98551.66;;;25.57;36.16
34197;BME280;36594;45.192;5.722;2023-03-26T13:03:29;98545.87;;;25.56;36.01
34197;BME280;36594;45.192;5.722;2023-03-26T13:06:52;98534.87;;;25.56;36.03
34197;BME280;36594;45.192;5.722;2023-03-26T13:18:40;98548.06;;;25.36;35.17
34197;BME280;36594;45.192;5.722;2023-03-26T13:30:36;98640.69;;;25.26;34.63
34197;BME280;36594;45.192;5.722;2023-03-26T13:46:41;98624.76;;;25.20;35.35
34197;BME280;36594;45.192;5.722;2023-03-26T13:49:32;98615.94;;;25.21;35.44
34197;BME280;36594;45.192;5.722;2023-03-26T13:52:25;98601.94;;;25.20;35.62
34197;BME280;36594;45.192;5.722;2023-03-26T13:55:46;98600.28;;;25.24;35.55
34197;BME280;36594;45.192;5.722;2023-03-26T13:58:34;98593.95;;;25.26;35.58
34197;BME280;36594;45.192;5.722;2023-03-26T14:01:29;98585.45;;;25.25;35.63
34197;BME280;36594;45.192;5.722;2023-03-26T14:04:32;98594.24;;;25.24;35.60
34197;BME280;36594;45.192;5.722;2023-03-26T14:07:33;98597.54;;;25.26;35.61
34197;BME280;36594;45.192;5.722;2023-03-26T14:10:25;98590.95;;;25.27;35.65
34197;BME280;36594;45.192;5.722;2023-03-26T14:13:30;98595.05;;;25.30;35.58
34197;BME280;36594;45.192;5.722;2023-03-26T14:16:47;98595.62;;;25.29;35.58
34197;BME280;36594;45.192;5.722;2023-03-26T14:19:41;98596.17;;;25.29;35.72
34197;BME280;36594;45.192;5.722;2023-03-26T14:32:23;98573.33;;;25.18;34.40
34197;BME280;36594;45.192;5.722;2023-03-26T14:35:24;98576.91;;;25.19;34.69
34197;BME280;36594;45.192;5.722;2023-03-26T14:41:50;98540.09;;;25.17;34.78
34197;BME280;36594;45.192;5.722;2023-03-26T14:44:50;98548.34;;;25.20;34.90
34197;BME280;36594;45.192;5.722;2023-03-26T14:50:55;98552.17;;;25.19;34.88
34197;BME280;36594;45.192;5.722;2023-03-26T14:53:45;98551.09;;;25.20;34.91
34197;BME280;36594;45.192;5.722;2023-03-26T14:56:51;98538.15;;;25.23;34.89
34197;BME280;36594;45.192;5.722;2023-03-26T15:06:23;98515.36;;;25.20;34.89
34197;BME280;36594;45.192;5.722;2023-03-26T15:12:31;98518.93;;;25.15;34.93
34197;BME280;36594;45.192;5.722;2023-03-26T15:15:41;98523.31;;;25.16;34.93
34197;BME280;36594;45.192;5.722;2023-03-26T15:33:48;98523.06;;;25.18;34.92
34197;BME280;36594;45.192;5.722;2023-03-26T15:46:06;98514.80;;;25.13;35.16
34197;BME280;36594;45.192;5.722;2023-03-26T15:59:02;98484.29;;;25.12;35.24
34197;BME280;36594;45.192;5.722;2023-03-26T16:10:49;98464.80;;;25.11;35.32
34197;BME280;36594;45.192;5.722;2023-03-26T16:13:48;98463.68;;;25.12;35.33
34197;BME280;36594;45.192;5.722;2023-03-26T16:16:56;98458.72;;;25.11;35.34
34197;BME280;36594;45.192;5.722;2023-03-26T16:23:02;98453.80;;;25.11;35.39
34197;BME280;36594;45.192;5.722;2023-03-26T16:32:09;98426.87;;;25.13;35.40
34197;BME280;36594;45.192;5.722;2023-03-26T16:34:58;98421.38;;;25.15;35.42
34197;BME280;36594;45.192;5.722;2023-03-26T16:37:49;98411.75;;;25.13;35.46
34197;BME280;36594;45.192;5.722;2023-03-26T16:41:00;98403.22;;;25.14;35.40
34197;BME280;36594;45.192;5.722;2023-03-26T16:46:59;98393.60;;;25.12;35.48
34197;BME280;36594;45.192;5.722;2023-03-26T16:53:32;98374.66;;;25.13;35.49
34197;BME280;36594;45.192;5.722;2023-03-26T16:56:16;98377.11;;;25.12;35.50
34197;BME280;36594;45.192;5.722;2023-03-26T17:03:13;98367.50;;;25.09;35.51
34197;BME280;36594;45.192;5.722;2023-03-26T17:05:35;98365.30;;;25.09;35.54
34197;BME280;36594;45.192;5.722;2023-03-26T17:08:36;98363.13;;;25.08;35.55
34197;BME280;36594;45.192;5.722;2023-03-26T17:14:41;98350.18;;;25.09;35.53
34197;BME280;36594;45.192;5.722;2023-03-26T17:21:10;98344.14;;;25.07;35.59
34197;BME280;36594;45.192;5.722;2023-03-26T17:33:27;98330.70;;;25.03;35.58
34197;BME280;36594;45.192;5.722;2023-03-26T17:36:28;98337.56;;;25.05;35.56
34197;BME280;36594;45.192;5.722;2023-03-26T17:39:19;98332.90;;;25.06;35.52
34197;BME280;36594;45.192;5.722;2023-03-26T17:42:30;98326.86;;;25.04;35.51
34197;BME280;36594;45.192;5.722;2023-03-26T17:45:24;98328.78;;;25.03;35.47
34197;BME280;36594;45.192;5.722;2023-03-26T17:48:20;98324.95;;;25.02;35.52
34197;BME280;36594;45.192;5.722;2023-03-26T17:57:45;98319.45;;;25.02;35.52
34197;BME280;36594;45.192;5.722;2023-03-26T18:00:42;98323.83;;;25.00;35.59
34197;BME280;36594;45.192;5.722;2023-03-26T18:03:40;98320.26;;;25.00;35.61
34197;BME280;36594;45.192;5.722;2023-03-26T18:19:01;98296.36;;;24.98;35.66
34197;BME280;36594;45.192;5.722;2023-03-26T18:21:53;98288.13;;;24.98;35.65
34197;BME280;36594;45.192;5.722;2023-03-26T18:24:43;98283.46;;;24.96;35.64
34197;BME280;36594;45.192;5.722;2023-03-26T18:27:35;98292.53;;;24.99;35.63
34197;BME280;36594;45.192;5.722;2023-03-26T18:30:25;98301.59;;;25.02;35.52
34197;BME280;36594;45.192;5.722;2023-03-26T18:33:14;98304.06;;;25.01;35.52
34197;BME280;36594;45.192;5.722;2023-03-26T18:36:04;98307.64;;;24.99;35.54
34197;BME280;36594;45.192;5.722;2023-03-26T18:38:57;98312.02;;;25.00;35.51
34197;BME280;36594;45.192;5.722;2023-03-26T18:41:46;98322.45;;;25.03;35.49
34197;BME280;36594;45.192;5.722;2023-03-26T18:44:35;98330.45;;;25.02;35.48
34197;BME280;36594;45.192;5.722;2023-03-26T18:47:24;98335.11;;;24.99;35.46
34197;BME280;36594;45.192;5.722;2023-03-26T18:50:15;98338.40;;;25.01;35.45
34197;BME280;36594;45.192;5.722;2023-03-26T18:53:08;98334.28;;;25.01;35.45
34197;BME280;36594;45.192;5.722;2023-03-26T18:55:57;98324.95;;;24.97;35.48
34197;BME280;36594;45.192;5.722;2023-03-26T18:58:50;98316.72;;;24.97;35.46
34197;BME280;36594;45.192;5.722;2023-03-26T19:01:41;98313.39;;;24.97;35.43
34197;BME280;36594;45.192;5.722;2023-03-26T19:04:31;98320.84;;;24.97;35.48
34197;BME280;36594;45.192;5.722;2023-03-26T19:07:23;98332.91;;;24.96;35.44
34197;BME280;36594;45.192;5.722;2023-03-26T19:10:17;98339.78;;;24.98;35.40
34197;BME280;36594;45.192;5.722;2023-03-26T19:13:11;98354.34;;;24.96;35.40
34197;BME280;36594;45.192;5.722;2023-03-26T19:16:08;98352.43;;;24.97;35.41
34197;BME280;36594;45.192;5.722;2023-03-26T19:18:51;98347.48;;;24.96;35.39
34197;BME280;36594;45.192;5.722;2023-03-26T19:21:40;98345.02;;;24.95;35.39
34197;BME280;36594;45.192;5.722;2023-03-26T19:24:28;98349.39;;;24.96;35.39
34197;BME280;36594;45.192;5.722;2023-03-26T19:27:17;98343.08;;;24.93;35.40
34197;BME280;36594;45.192;5.722;2023-03-26T19:30:08;98349.14;;;24.95;35.34
34197;BME280;36594;45.192;5.722;2023-03-26T19:33:05;98355.44;;;24.93;35.37
34197;BME280;36594;45.192;5.722;2023-03-26T19:36:29;98351.06;;;24.94;35.32
34197;BME280;36594;45.192;5.722;2023-03-26T19:39:02;98329.34;;;24.93;35.37
34197;BME280;36594;45.192;5.722;2023-03-26T19:41:51;98337.03;;;24.93;35.32
34197;BME280;36594;45.192;5.722;2023-03-26T19:44:41;98339.53;;;24.92;35.32
34197;BME280;36594;45.192;5.722;2023-03-26T19:47:41;98335.66;;;24.91;35.34
34197;BME280;36594;45.192;5.722;2023-03-26T19:50:32;98340.07;;;24.92;35.34
34197;BME280;36594;45.192;5.722;2023-03-26T19:53:23;98329.91;;;24.90;35.36
34197;BME280;36594;45.192;5.722;2023-03-26T19:56:14;98323.87;;;24.88;35.35
34197;BME280;36594;45.192;5.722;2023-03-26T19:59:04;98332.92;;;24.88;35.32
34197;BME280;36594;45.192;5.722;2023-03-26T20:01:53;98306.58;;;24.80;35.32
34197;BME280;36594;45.192;5.722;2023-03-26T20:04:42;98326.05;;;24.91;35.32
34197;BME280;36594;45.192;5.722;2023-03-26T20:07:31;98326.05;;;24.88;35.29
34197;BME280;36594;45.192;5.722;2023-03-26T20:10:21;98322.51;;;24.85;35.32
34197;BME280;36594;45.192;5.722;2023-03-26T20:13:16;98305.48;;;24.78;35.29
34197;BME280;36594;45.192;5.722;2023-03-26T20:16:24;98316.73;;;24.84;35.32
34197;BME280;36594;45.192;5.722;2023-03-26T20:19:13;98316.19;;;24.85;35.32